sensor_id;sensor_type;location;lat;lon;timestamp;P1;durP1;ratioP1;P2;durP2;ratioP2
29120;SDS011;16191;49.548;8.658;2022-09-27T00:00:41;2.15;;;1.10;;
29120;SDS011;16191;49.548;8.658;2022-09-27T00:03:09;1.55;;;1.05;;
29120;SDS011;16191;49.548;8.658;2022-09-27T00:05:37;6.28;;;1.27;;
29120;SDS011;16191;49.548;8.658;2022-09-27T00:08:04;2.25;;;1.38;;
29120;SDS011;16191;49.548;8.658;2022-09-27T00:10:31;1.20;;;0.95;;
29120;SDS011;16191;49.548;8.658;2022-09-27T00:12:58;2.75;;;1.20;;
29120;SDS011;16191;49.548;8.658;2022-09-27T00:15:25;2.72;;;1.10;;
29120;SDS011;16191;49.548;8.658;2022-09-27T00:17:52;3.10;;;1.27;;
29120;SDS011;16191;49.548;8.658;2022-09-27T00:20:19;1.75;;;0.90;;
29120;SDS011;16191;49.548;8.658;2022-09-27T00:22:46;2.60;;;1.13;;
29120;SDS011;16191;49.548;8.658;2022-09-27T00:25:14;4.78;;;1.35;;
29120;SDS011;16191;49.548;8.658;2022-09-27T00:27:42;1.77;;;1.23;;
29120;SDS011;16191;49.548;8.658;2022-09-27T00:30:09;2.30;;;1.27;;
29120;SDS011;16191;49.548;8.658;2022-09-27T00:32:36;4.18;;;1.30;;
29120;SDS011;16191;49.548;8.658;2022-09-27T00:35:03;5.45;;;1.67;;
29120;SDS011;16191;49.548;8.658;2022-09-27T00:37:30;4.10;;;1.15;;
29120;SDS011;16191;49.548;8.658;2022-09-27T00:39:57;2.25;;;1.23;;
29120;SDS011;16191;49.548;8.658;2022-09-27T00:42:24;4.57;;;1.20;;
29120;SDS011;16191;49.548;8.658;2022-09-27T00:45:11;4.05;;;1.20;;
29120;SDS011;16191;49.548;8.658;2022-09-27T00:48:02;3.55;;;1.40;;
29120;SDS011;16191;49.548;8.658;2022-09-27T00:50:51;1.38;;;1.20;;
29120;SDS011;16191;49.548;8.658;2022-09-27T00:53:43;2.22;;;1.15;;
29120;SDS011;16191;49.548;8.658;2022-09-27T00:56:34;1.50;;;0.88;;
29120;SDS011;16191;49.548;8.658;2022-09-27T00:59:24;3.17;;;1.17;;
29120;SDS011;16191;49.548;8.658;2022-09-27T01:01:53;0.88;;;0.70;;
29120;SDS011;16191;49.548;8.658;2022-09-27T01:04:22;3.65;;;1.02;;
29120;SDS011;16191;49.548;8.658;2022-09-27T01:06:52;4.53;;;1.10;;
29120;SDS011;16191;49.548;8.658;2022-09-27T01:09:19;1.38;;;0.90;;
29120;SDS011;16191;49.548;8.658;2022-09-27T01:15:04;0.70;;;0.70;;
29120;SDS011;16191;49.548;8.658;2022-09-27T01:22:34;1.38;;;0.90;;
29120;SDS011;16191;49.548;8.658;2022-09-27T01:28:27;1.83;;;1.00;;
29120;SDS011;16191;49.548;8.658;2022-09-27T01:31:33;2.75;;;1.30;;
29120;SDS011;16191;49.548;8.658;2022-09-27T01:34:17;1.35;;;1.00;;
29120;SDS011;16191;49.548;8.658;2022-09-27T01:36:53;2.90;;;1.20;;
29120;SDS011;16191;49.548;8.658;2022-09-27T01:42:34;0.88;;;0.82;;
29120;SDS011;16191;49.548;8.658;2022-09-27T01:47:58;3.78;;;1.45;;
29120;SDS011;16191;49.548;8.658;2022-09-27T01:50:56;4.18;;;1.42;;
29120;SDS011;16191;49.548;8.658;2022-09-27T01:56:40;1.77;;;0.90;;
29120;SDS011;16191;49.548;8.658;2022-09-27T02:02:07;1.13;;;0.98;;
29120;SDS011;16191;49.548;8.658;2022-09-27T02:04:56;1.55;;;1.10;;
29120;SDS011;16191;49.548;8.658;2022-09-27T02:07:28;1.88;;;0.90;;
29120;SDS011;16191;49.548;8.658;2022-09-27T02:10:08;1.00;;;0.90;;
29120;SDS011;16191;49.548;8.658;2022-09-27T02:12:55;1.85;;;1.25;;
29120;SDS011;16191;49.548;8.658;2022-09-27T02:15:28;2.22;;;1.00;;
29120;SDS011;16191;49.548;8.658;2022-09-27T02:18:28;2.78;;;1.05;;
29120;SDS011;16191;49.548;8.658;2022-09-27T02:21:01;2.42;;;1.15;;
29120;SDS011;16191;49.548;8.658;2022-09-27T02:23:40;3.05;;;1.20;;
29120;SDS011;16191;49.548;8.658;2022-09-27T02:26:17;3.60;;;1.17;;
29120;SDS011;16191;49.548;8.658;2022-09-27T02:28:58;2.63;;;1.20;;
29120;SDS011;16191;49.548;8.658;2022-09-27T02:31:33;3.10;;;1.20;;
29120;SDS011;16191;49.548;8.658;2022-09-27T02:34:22;3.38;;;1.08;;
29120;SDS011;16191;49.548;8.658;2022-09-27T02:36:53;3.17;;;1.00;;
29120;SDS011;16191;49.548;8.658;2022-09-27T02:39:20;7.05;;;1.45;;
29120;SDS011;16191;49.548;8.658;2022-09-27T02:41:54;2.78;;;1.30;;
29120;SDS011;16191;49.548;8.658;2022-09-27T02:44:23;2.55;;;0.95;;
29120;SDS011;16191;49.548;8.658;2022-09-27T02:50:01;4.60;;;1.27;;
29120;SDS011;16191;49.548;8.658;2022-09-27T02:53:08;4.05;;;1.63;;
29120;SDS011;16191;49.548;8.658;2022-09-27T03:05:06;3.47;;;1.38;;
29120;SDS011;16191;49.548;8.658;2022-09-27T03:07:36;3.13;;;1.10;;
29120;SDS011;16191;49.548;8.658;2022-09-27T03:10:04;5.85;;;1.45;;
29120;SDS011;16191;49.548;8.658;2022-09-27T03:12:33;2.63;;;1.35;;
29120;SDS011;16191;49.548;8.658;2022-09-27T03:15:00;6.30;;;2.10;;
29120;SDS011;16191;49.548;8.658;2022-09-27T03:17:45;5.20;;;2.08;;
29120;SDS011;16191;49.548;8.658;2022-09-27T03:20:31;6.68;;;1.80;;
29120;SDS011;16191;49.548;8.658;2022-09-27T03:23:09;5.55;;;1.77;;
29120;SDS011;16191;49.548;8.658;2022-09-27T03:25:36;4.97;;;1.98;;
29120;SDS011;16191;49.548;8.658;2022-09-27T03:28:03;5.13;;;2.33;;
29120;SDS011;16191;49.548;8.658;2022-09-27T03:30:30;5.72;;;1.83;;
29120;SDS011;16191;49.548;8.658;2022-09-27T03:32:57;4.32;;;2.00;;
29120;SDS011;16191;49.548;8.658;2022-09-27T03:35:42;4.85;;;2.20;;
29120;SDS011;16191;49.548;8.658;2022-09-27T03:38:09;8.45;;;2.50;;
29120;SDS011;16191;49.548;8.658;2022-09-27T03:40:37;8.68;;;2.25;;
29120;SDS011;16191;49.548;8.658;2022-09-27T03:43:06;4.68;;;1.88;;
29120;SDS011;16191;49.548;8.658;2022-09-27T03:45:32;4.18;;;2.20;;
29120;SDS011;16191;49.548;8.658;2022-09-27T03:48:03;6.30;;;1.65;;
29120;SDS011;16191;49.548;8.658;2022-09-27T03:50:30;5.68;;;1.90;;
29120;SDS011;16191;49.548;8.658;2022-09-27T03:52:57;4.65;;;1.77;;
29120;SDS011;16191;49.548;8.658;2022-09-27T03:55:24;5.47;;;1.83;;
29120;SDS011;16191;49.548;8.658;2022-09-27T03:57:51;5.68;;;1.70;;
29120;SDS011;16191;49.548;8.658;2022-09-27T04:00:19;5.43;;;1.50;;
29120;SDS011;16191;49.548;8.658;2022-09-27T04:02:46;4.30;;;1.75;;
29120;SDS011;16191;49.548;8.658;2022-09-27T04:05:22;6.07;;;1.60;;
29120;SDS011;16191;49.548;8.658;2022-09-27T04:07:55;4.13;;;1.80;;
29120;SDS011;16191;49.548;8.658;2022-09-27T04:10:22;3.90;;;1.83;;
29120;SDS011;16191;49.548;8.658;2022-09-27T04:12:50;5.13;;;1.73;;
29120;SDS011;16191;49.548;8.658;2022-09-27T04:15:19;4.93;;;1.80;;
29120;SDS011;16191;49.548;8.658;2022-09-27T04:17:49;5.77;;;1.97;;
29120;SDS011;16191;49.548;8.658;2022-09-27T04:20:31;4.72;;;1.60;;
29120;SDS011;16191;49.548;8.658;2022-09-27T04:23:03;6.05;;;1.52;;
29120;SDS011;16191;49.548;8.658;2022-09-27T04:25:30;6.78;;;1.70;;
29120;SDS011;16191;49.548;8.658;2022-09-27T04:28:07;4.70;;;2.22;;
29120;SDS011;16191;49.548;8.658;2022-09-27T04:30:34;2.70;;;1.80;;
29120;SDS011;16191;49.548;8.658;2022-09-27T04:33:21;4.88;;;1.67;;
29120;SDS011;16191;49.548;8.658;2022-09-27T04:36:18;3.85;;;1.70;;
29120;SDS011;16191;49.548;8.658;2022-09-27T04:39:07;6.30;;;1.80;;
29120;SDS011;16191;49.548;8.658;2022-09-27T04:41:40;9.30;;;1.77;;
29120;SDS011;16191;49.548;8.658;2022-09-27T04:44:08;3.38;;;1.45;;
29120;SDS011;16191;49.548;8.658;2022-09-27T04:46:34;3.10;;;1.35;;
29120;SDS011;16191;49.548;8.658;2022-09-27T04:49:01;2.95;;;1.60;;
29120;SDS011;16191;49.548;8.658;2022-09-27T04:51:30;3.25;;;1.60;;
29120;SDS011;16191;49.548;8.658;2022-09-27T04:53:56;5.30;;;2.08;;
29120;SDS011;16191;49.548;8.658;2022-09-27T04:56:29;2.75;;;1.65;;
29120;SDS011;16191;49.548;8.658;2022-09-27T04:58:55;2.78;;;1.63;;
29120;SDS011;16191;49.548;8.658;2022-09-27T05:01:22;4.10;;;1.75;;
29120;SDS011;16191;49.548;8.658;2022-09-27T05:03:58;4.13;;;1.42;;
29120;SDS011;16191;49.548;8.658;2022-09-27T05:06:27;2.40;;;1.27;;
29120;SDS011;16191;49.548;8.658;2022-09-27T05:11:26;5.00;;;1.58;;
29120;SDS011;16191;49.548;8.658;2022-09-27T05:14:11;7.80;;;1.70;;
29120;SDS011;16191;49.548;8.658;2022-09-27T05:16:48;7.93;;;1.50;;
29120;SDS011;16191;49.548;8.658;2022-09-27T05:19:42;2.92;;;1.38;;
29120;SDS011;16191;49.548;8.658;2022-09-27T05:24:43;6.37;;;1.70;;
29120;SDS011;16191;49.548;8.658;2022-09-27T05:27:11;2.63;;;1.30;;
29120;SDS011;16191;49.548;8.658;2022-09-27T05:29:42;2.10;;;1.10;;
29120;SDS011;16191;49.548;8.658;2022-09-27T05:32:13;3.45;;;1.60;;
29120;SDS011;16191;49.548;8.658;2022-09-27T05:34:41;3.90;;;1.42;;
29120;SDS011;16191;49.548;8.658;2022-09-27T05:37:08;2.13;;;1.10;;
29120;SDS011;16191;49.548;8.658;2022-09-27T05:39:38;5.30;;;1.30;;
29120;SDS011;16191;49.548;8.658;2022-09-27T05:42:04;7.13;;;1.27;;
29120;SDS011;16191;49.548;8.658;2022-09-27T05:44:33;4.75;;;1.20;;
29120;SDS011;16191;49.548;8.658;2022-09-27T05:47:01;7.65;;;1.10;;
29120;SDS011;16191;49.548;8.658;2022-09-27T05:49:31;2.65;;;1.08;;
29120;SDS011;16191;49.548;8.658;2022-09-27T05:51:59;5.40;;;1.20;;
29120;SDS011;16191;49.548;8.658;2022-09-27T05:54:27;3.40;;;0.90;;
29120;SDS011;16191;49.548;8.658;2022-09-27T05:56:56;6.10;;;1.00;;
29120;SDS011;16191;49.548;8.658;2022-09-27T05:59:41;4.72;;;1.10;;
29120;SDS011;16191;49.548;8.658;2022-09-27T06:02:20;2.08;;;0.90;;
29120;SDS011;16191;49.548;8.658;2022-09-27T06:05:06;1.77;;;1.00;;
29120;SDS011;16191;49.548;8.658;2022-09-27T06:07:36;2.30;;;0.88;;
29120;SDS011;16191;49.548;8.658;2022-09-27T06:10:07;1.35;;;0.90;;
29120;SDS011;16191;49.548;8.658;2022-09-27T06:12:34;3.47;;;0.95;;
29120;SDS011;16191;49.548;8.658;2022-09-27T06:15:04;3.80;;;0.98;;
29120;SDS011;16191;49.548;8.658;2022-09-27T06:17:35;1.95;;;0.90;;
29120;SDS011;16191;49.548;8.658;2022-09-27T06:20:08;4.93;;;1.25;;
29120;SDS011;16191;49.548;8.658;2022-09-27T06:22:35;2.33;;;1.00;;
29120;SDS011;16191;49.548;8.658;2022-09-27T06:25:03;3.33;;;0.95;;
29120;SDS011;16191;49.548;8.658;2022-09-27T06:27:34;4.80;;;0.93;;
29120;SDS011;16191;49.548;8.658;2022-09-27T06:30:07;1.42;;;0.80;;
29120;SDS011;16191;49.548;8.658;2022-09-27T06:32:43;4.57;;;0.80;;
29120;SDS011;16191;49.548;8.658;2022-09-27T06:35:19;1.88;;;1.00;;
29120;SDS011;16191;49.548;8.658;2022-09-27T06:37:45;1.92;;;0.90;;
29120;SDS011;16191;49.548;8.658;2022-09-27T06:40:12;5.10;;;0.90;;
29120;SDS011;16191;49.548;8.658;2022-09-27T06:42:51;2.20;;;0.93;;
29120;SDS011;16191;49.548;8.658;2022-09-27T06:45:36;5.20;;;1.00;;
29120;SDS011;16191;49.548;8.658;2022-09-27T06:48:22;2.75;;;0.82;;
29120;SDS011;16191;49.548;8.658;2022-09-27T06:51:09;2.88;;;1.02;;
29120;SDS011;16191;49.548;8.658;2022-09-27T06:53:35;4.88;;;1.17;;
29120;SDS011;16191;49.548;8.658;2022-09-27T06:56:02;2.08;;;0.90;;
29120;SDS011;16191;49.548;8.658;2022-09-27T06:58:40;3.88;;;1.20;;
29120;SDS011;16191;49.548;8.658;2022-09-27T07:01:40;1.42;;;0.93;;
29120;SDS011;16191;49.548;8.658;2022-09-27T07:04:27;3.10;;;1.35;;
29120;SDS011;16191;49.548;8.658;2022-09-27T07:07:00;2.28;;;0.80;;
29120;SDS011;16191;49.548;8.658;2022-09-27T07:09:33;2.17;;;0.77;;
29120;SDS011;16191;49.548;8.658;2022-09-27T07:12:00;6.10;;;1.15;;
29120;SDS011;16191;49.548;8.658;2022-09-27T07:14:28;2.00;;;0.90;;
29120;SDS011;16191;49.548;8.658;2022-09-27T07:16:55;2.38;;;1.10;;
29120;SDS011;16191;49.548;8.658;2022-09-27T07:19:24;2.92;;;1.10;;
29120;SDS011;16191;49.548;8.658;2022-09-27T07:21:52;2.05;;;0.93;;
29120;SDS011;16191;49.548;8.658;2022-09-27T07:24:18;4.57;;;1.35;;
29120;SDS011;16191;49.548;8.658;2022-09-27T07:26:46;2.63;;;0.90;;
29120;SDS011;16191;49.548;8.658;2022-09-27T07:29:15;1.52;;;0.80;;
29120;SDS011;16191;49.548;8.658;2022-09-27T07:31:42;4.75;;;1.90;;
29120;SDS011;16191;49.548;8.658;2022-09-27T07:34:09;5.70;;;1.40;;
29120;SDS011;16191;49.548;8.658;2022-09-27T07:36:36;5.90;;;1.13;;
29120;SDS011;16191;49.548;8.658;2022-09-27T07:39:03;2.15;;;1.02;;
29120;SDS011;16191;49.548;8.658;2022-09-27T07:41:35;5.43;;;0.68;;
29120;SDS011;16191;49.548;8.658;2022-09-27T07:44:04;4.45;;;1.00;;
29120;SDS011;16191;49.548;8.658;2022-09-27T07:46:39;2.10;;;0.80;;
29120;SDS011;16191;49.548;8.658;2022-09-27T07:49:16;3.17;;;0.73;;
29120;SDS011;16191;49.548;8.658;2022-09-27T07:51:58;2.15;;;0.90;;
29120;SDS011;16191;49.548;8.658;2022-09-27T07:54:48;4.07;;;1.10;;
29120;SDS011;16191;49.548;8.658;2022-09-27T07:57:36;3.63;;;1.10;;
29120;SDS011;16191;49.548;8.658;2022-09-27T08:00:04;2.13;;;0.82;;
29120;SDS011;16191;49.548;8.658;2022-09-27T08:02:38;1.17;;;0.68;;
29120;SDS011;16191;49.548;8.658;2022-09-27T08:05:05;2.20;;;1.02;;
29120;SDS011;16191;49.548;8.658;2022-09-27T08:07:33;1.35;;;0.73;;
29120;SDS011;16191;49.548;8.658;2022-09-27T08:10:01;3.42;;;0.80;;
29120;SDS011;16191;49.548;8.658;2022-09-27T08:12:28;2.38;;;0.90;;
29120;SDS011;16191;49.548;8.658;2022-09-27T08:14:55;1.25;;;0.80;;
29120;SDS011;16191;49.548;8.658;2022-09-27T08:17:26;1.33;;;0.82;;
29120;SDS011;16191;49.548;8.658;2022-09-27T08:20:16;3.40;;;0.88;;
29120;SDS011;16191;49.548;8.658;2022-09-27T08:22:52;1.85;;;0.82;;
29120;SDS011;16191;49.548;8.658;2022-09-27T08:25:30;3.40;;;0.70;;
29120;SDS011;16191;49.548;8.658;2022-09-27T08:28:21;2.75;;;0.50;;
29120;SDS011;16191;49.548;8.658;2022-09-27T08:31:07;1.50;;;0.65;;
29120;SDS011;16191;49.548;8.658;2022-09-27T08:33:34;3.05;;;0.60;;
29120;SDS011;16191;49.548;8.658;2022-09-27T08:36:10;0.65;;;0.60;;
29120;SDS011;16191;49.548;8.658;2022-09-27T08:38:38;0.70;;;0.70;;
29120;SDS011;16191;49.548;8.658;2022-09-27T08:43:45;1.13;;;0.60;;
29120;SDS011;16191;49.548;8.658;2022-09-27T08:48:56;4.75;;;0.63;;
29120;SDS011;16191;49.548;8.658;2022-09-27T08:51:31;1.88;;;0.50;;
29120;SDS011;16191;49.548;8.658;2022-09-27T08:56:40;0.90;;;0.60;;
29120;SDS011;16191;49.548;8.658;2022-09-27T08:59:16;0.85;;;0.57;;
29120;SDS011;16191;49.548;8.658;2022-09-27T09:01:47;4.40;;;0.88;;
29120;SDS011;16191;49.548;8.658;2022-09-27T09:04:27;3.20;;;1.10;;
29120;SDS011;16191;49.548;8.658;2022-09-27T09:16:31;6.63;;;0.77;;
29120;SDS011;16191;49.548;8.658;2022-09-27T09:35:59;3.28;;;0.75;;
29120;SDS011;16191;49.548;8.658;2022-09-27T09:41:21;5.50;;;1.30;;
29120;SDS011;16191;49.548;8.658;2022-09-27T09:44:16;3.75;;;1.05;;
29120;SDS011;16191;49.548;8.658;2022-09-27T09:46:45;4.50;;;0.98;;
29120;SDS011;16191;49.548;8.658;2022-09-27T09:49:17;3.15;;;1.00;;
29120;SDS011;16191;49.548;8.658;2022-09-27T09:51:54;5.80;;;1.00;;
29120;SDS011;16191;49.548;8.658;2022-09-27T09:54:26;5.00;;;1.00;;
29120;SDS011;16191;49.548;8.658;2022-09-27T09:59:54;5.45;;;1.05;;
29120;SDS011;16191;49.548;8.658;2022-09-27T10:02:31;2.47;;;1.00;;
29120;SDS011;16191;49.548;8.658;2022-09-27T10:05:12;3.85;;;1.20;;
29120;SDS011;16191;49.548;8.658;2022-09-27T10:07:41;7.60;;;1.20;;
29120;SDS011;16191;49.548;8.658;2022-09-27T10:10:10;2.92;;;1.02;;
29120;SDS011;16191;49.548;8.658;2022-09-27T10:12:52;1.95;;;1.02;;
29120;SDS011;16191;49.548;8.658;2022-09-27T10:15:26;3.53;;;0.95;;
29120;SDS011;16191;49.548;8.658;2022-09-27T10:17:56;5.43;;;1.40;;
29120;SDS011;16191;49.548;8.658;2022-09-27T10:20:38;3.70;;;1.05;;
29120;SDS011;16191;49.548;8.658;2022-09-27T10:23:21;3.58;;;1.10;;
29120;SDS011;16191;49.548;8.658;2022-09-27T10:26:08;5.03;;;0.85;;
29120;SDS011;16191;49.548;8.658;2022-09-27T10:28:43;4.07;;;1.20;;
29120;SDS011;16191;49.548;8.658;2022-09-27T10:31:16;3.40;;;1.05;;
29120;SDS011;16191;49.548;8.658;2022-09-27T10:34:03;2.67;;;1.08;;
29120;SDS011;16191;49.548;8.658;2022-09-27T10:37:02;4.22;;;1.20;;
29120;SDS011;16191;49.548;8.658;2022-09-27T10:39:49;4.10;;;1.52;;
29120;SDS011;16191;49.548;8.658;2022-09-27T10:42:33;3.75;;;1.30;;
29120;SDS011;16191;49.548;8.658;2022-09-27T10:45:19;6.70;;;1.30;;
29120;SDS011;16191;49.548;8.658;2022-09-27T10:47:54;2.20;;;1.00;;
29120;SDS011;16191;49.548;8.658;2022-09-27T10:50:34;5.63;;;1.02;;
29120;SDS011;16191;49.548;8.658;2022-09-27T10:53:24;4.25;;;1.33;;
29120;SDS011;16191;49.548;8.658;2022-09-27T10:56:03;3.35;;;1.30;;
29120;SDS011;16191;49.548;8.658;2022-09-27T10:58:34;4.60;;;1.30;;
29120;SDS011;16191;49.548;8.658;2022-09-27T11:01:05;2.65;;;1.05;;
29120;SDS011;16191;49.548;8.658;2022-09-27T11:03:59;8.18;;;2.30;;
29120;SDS011;16191;49.548;8.658;2022-09-27T11:06:27;2.38;;;1.27;;
29120;SDS011;16191;49.548;8.658;2022-09-27T11:09:08;2.58;;;1.10;;
29120;SDS011;16191;49.548;8.658;2022-09-27T11:11:41;2.75;;;1.02;;
29120;SDS011;16191;49.548;8.658;2022-09-27T11:14:18;3.75;;;1.33;;
29120;SDS011;16191;49.548;8.658;2022-09-27T11:19:42;1.70;;;1.10;;
29120;SDS011;16191;49.548;8.658;2022-09-27T11:51:14;2.17;;;1.13;;
29120;SDS011;16191;49.548;8.658;2022-09-27T11:56:40;3.78;;;1.38;;
29120;SDS011;16191;49.548;8.658;2022-09-27T12:11:11;3.75;;;1.60;;
29120;SDS011;16191;49.548;8.658;2022-09-27T12:13:56;6.20;;;1.65;;
29120;SDS011;16191;49.548;8.658;2022-09-27T12:16:29;4.05;;;1.40;;
29120;SDS011;16191;49.548;8.658;2022-09-27T12:18:58;3.17;;;1.10;;
29120;SDS011;16191;49.548;8.658;2022-09-27T12:21:45;3.58;;;1.38;;
29120;SDS011;16191;49.548;8.658;2022-09-27T12:24:15;4.63;;;1.20;;
29120;SDS011;16191;49.548;8.658;2022-09-27T12:27:42;6.22;;;1.40;;
29120;SDS011;16191;49.548;8.658;2022-09-27T12:29:51;2.60;;;1.20;;
29120;SDS011;16191;49.548;8.658;2022-09-27T12:32:25;4.60;;;1.20;;
29120;SDS011;16191;49.548;8.658;2022-09-27T12:35:02;3.60;;;1.10;;
29120;SDS011;16191;49.548;8.658;2022-09-27T12:37:33;2.30;;;1.10;;
29120;SDS011;16191;49.548;8.658;2022-09-27T12:40:06;3.55;;;1.33;;
29120;SDS011;16191;49.548;8.658;2022-09-27T12:46:34;2.42;;;0.65;;
29120;SDS011;16191;49.548;8.658;2022-09-27T12:52:21;2.05;;;0.95;;
29120;SDS011;16191;49.548;8.658;2022-09-27T13:06:53;3.70;;;0.60;;
29120;SDS011;16191;49.548;8.658;2022-09-27T13:12:40;2.35;;;0.90;;
29120;SDS011;16191;49.548;8.658;2022-09-27T13:15:20;2.58;;;0.88;;
29120;SDS011;16191;49.548;8.658;2022-09-27T13:17:57;2.05;;;0.80;;
29120;SDS011;16191;49.548;8.658;2022-09-27T13:20:37;3.08;;;1.10;;
29120;SDS011;16191;49.548;8.658;2022-09-27T13:31:16;2.38;;;0.70;;
29120;SDS011;16191;49.548;8.658;2022-09-27T13:34:44;2.75;;;1.15;;
29120;SDS011;16191;49.548;8.658;2022-09-27T13:45:57;2.83;;;1.00;;
29120;SDS011;16191;49.548;8.658;2022-09-27T13:51:18;3.47;;;1.00;;
29120;SDS011;16191;49.548;8.658;2022-09-27T13:53:55;3.65;;;1.42;;
29120;SDS011;16191;49.548;8.658;2022-09-27T13:56:46;3.15;;;1.23;;
29120;SDS011;16191;49.548;8.658;2022-09-27T13:59:30;2.33;;;0.90;;
29120;SDS011;16191;49.548;8.658;2022-09-27T14:02:26;6.00;;;1.05;;
29120;SDS011;16191;49.548;8.658;2022-09-27T14:04:57;2.75;;;0.82;;
29120;SDS011;16191;49.548;8.658;2022-09-27T14:07:29;3.33;;;0.90;;
29120;SDS011;16191;49.548;8.658;2022-09-27T14:10:04;10.23;;;1.70;;
29120;SDS011;16191;49.548;8.658;2022-09-27T14:12:36;2.03;;;1.27;;
29120;SDS011;16191;49.548;8.658;2022-09-27T14:15:08;4.00;;;1.10;;
29120;SDS011;16191;49.548;8.658;2022-09-27T14:17:44;1.98;;;1.13;;
29120;SDS011;16191;49.548;8.658;2022-09-27T14:23:43;0.60;;;0.60;;
29120;SDS011;16191;49.548;8.658;2022-09-27T14:26:20;4.40;;;0.90;;
29120;SDS011;16191;49.548;8.658;2022-09-27T14:28:50;1.65;;;0.80;;
29120;SDS011;16191;49.548;8.658;2022-09-27T14:31:25;1.55;;;1.08;;
29120;SDS011;16191;49.548;8.658;2022-09-27T14:34:24;2.00;;;1.00;;
29120;SDS011;16191;49.548;8.658;2022-09-27T14:36:51;6.25;;;1.33;;
29120;SDS011;16191;49.548;8.658;2022-09-27T14:39:52;2.25;;;1.02;;
29120;SDS011;16191;49.548;8.658;2022-09-27T14:42:32;4.40;;;1.10;;
29120;SDS011;16191;49.548;8.658;2022-09-27T14:45:03;2.63;;;1.00;;
29120;SDS011;16191;49.548;8.658;2022-09-27T14:47:46;3.75;;;1.55;;
29120;SDS011;16191;49.548;8.658;2022-09-27T14:50:28;3.40;;;0.90;;
29120;SDS011;16191;49.548;8.658;2022-09-27T14:55:25;3.15;;;1.38;;
29120;SDS011;16191;49.548;8.658;2022-09-27T14:57:58;1.77;;;0.82;;
29120;SDS011;16191;49.548;8.658;2022-09-27T15:00:29;2.40;;;0.88;;
29120;SDS011;16191;49.548;8.658;2022-09-27T15:02:59;2.38;;;0.82;;
29120;SDS011;16191;49.548;8.658;2022-09-27T15:05:33;1.38;;;1.00;;
29120;SDS011;16191;49.548;8.658;2022-09-27T15:08:01;1.42;;;0.98;;
29120;SDS011;16191;49.548;8.658;2022-09-27T15:10:31;1.13;;;0.73;;
29120;SDS011;16191;49.548;8.658;2022-09-27T15:13:00;6.68;;;1.15;;
29120;SDS011;16191;49.548;8.658;2022-09-27T15:15:34;2.78;;;1.15;;
29120;SDS011;16191;49.548;8.658;2022-09-27T15:18:22;4.68;;;1.20;;
29120;SDS011;16191;49.548;8.658;2022-09-27T15:20:58;2.90;;;1.30;;
29120;SDS011;16191;49.548;8.658;2022-09-27T15:23:29;2.92;;;1.20;;
29120;SDS011;16191;49.548;8.658;2022-09-27T15:28:44;4.20;;;1.45;;
29120;SDS011;16191;49.548;8.658;2022-09-27T15:31:12;4.40;;;1.95;;
29120;SDS011;16191;49.548;8.658;2022-09-27T15:33:40;5.05;;;1.85;;
29120;SDS011;16191;49.548;8.658;2022-09-27T15:36:08;5.30;;;1.75;;
29120;SDS011;16191;49.548;8.658;2022-09-27T15:41:14;3.55;;;1.52;;
29120;SDS011;16191;49.548;8.658;2022-09-27T15:51:48;3.15;;;1.40;;
29120;SDS011;16191;49.548;8.658;2022-09-27T15:54:16;4.00;;;1.30;;
29120;SDS011;16191;49.548;8.658;2022-09-27T15:56:45;6.32;;;1.80;;
29120;SDS011;16191;49.548;8.658;2022-09-27T15:59:33;2.88;;;1.40;;
29120;SDS011;16191;49.548;8.658;2022-09-27T16:02:03;3.85;;;1.13;;
29120;SDS011;16191;49.548;8.658;2022-09-27T16:04:36;3.13;;;1.27;;
29120;SDS011;16191;49.548;8.658;2022-09-27T16:07:03;2.47;;;1.20;;
29120;SDS011;16191;49.548;8.658;2022-09-27T16:09:34;5.60;;;1.70;;
29120;SDS011;16191;49.548;8.658;2022-09-27T16:12:01;5.00;;;1.27;;
29120;SDS011;16191;49.548;8.658;2022-09-27T16:14:27;4.53;;;1.30;;
29120;SDS011;16191;49.548;8.658;2022-09-27T16:16:54;1.70;;;1.13;;
29120;SDS011;16191;49.548;8.658;2022-09-27T16:19:26;4.65;;;1.88;;
29120;SDS011;16191;49.548;8.658;2022-09-27T16:21:52;3.20;;;1.30;;
29120;SDS011;16191;49.548;8.658;2022-09-27T16:24:19;5.30;;;1.88;;
29120;SDS011;16191;49.548;8.658;2022-09-27T16:26:45;4.88;;;1.75;;
29120;SDS011;16191;49.548;8.658;2022-09-27T16:29:13;3.50;;;1.75;;
29120;SDS011;16191;49.548;8.658;2022-09-27T16:31:41;2.53;;;1.52;;
29120;SDS011;16191;49.548;8.658;2022-09-27T16:34:08;6.22;;;2.00;;
29120;SDS011;16191;49.548;8.658;2022-09-27T16:36:36;6.03;;;1.83;;
29120;SDS011;16191;49.548;8.658;2022-09-27T16:39:05;3.60;;;1.88;;
29120;SDS011;16191;49.548;8.658;2022-09-27T16:41:33;2.97;;;1.58;;
29120;SDS011;16191;49.548;8.658;2022-09-27T16:44:05;3.75;;;2.00;;
29120;SDS011;16191;49.548;8.658;2022-09-27T16:46:39;8.23;;;2.33;;
29120;SDS011;16191;49.548;8.658;2022-09-27T16:49:07;6.28;;;2.38;;
29120;SDS011;16191;49.548;8.658;2022-09-27T16:51:55;5.32;;;2.33;;
29120;SDS011;16191;49.548;8.658;2022-09-27T16:54:25;6.10;;;2.85;;
29120;SDS011;16191;49.548;8.658;2022-09-27T16:56:54;4.53;;;2.60;;
29120;SDS011;16191;49.548;8.658;2022-09-27T16:59:22;4.63;;;2.83;;
29120;SDS011;16191;49.548;8.658;2022-09-27T17:01:50;5.90;;;2.97;;
29120;SDS011;16191;49.548;8.658;2022-09-27T17:04:17;6.65;;;2.90;;
29120;SDS011;16191;49.548;8.658;2022-09-27T17:06:43;7.22;;;2.70;;
29120;SDS011;16191;49.548;8.658;2022-09-27T17:09:10;5.22;;;2.30;;
29120;SDS011;16191;49.548;8.658;2022-09-27T17:11:37;5.43;;;2.10;;
29120;SDS011;16191;49.548;8.658;2022-09-27T17:14:03;5.00;;;1.70;;
29120;SDS011;16191;49.548;8.658;2022-09-27T17:16:50;4.35;;;1.40;;
29120;SDS011;16191;49.548;8.658;2022-09-27T17:19:38;5.80;;;1.35;;
29120;SDS011;16191;49.548;8.658;2022-09-27T17:22:25;2.20;;;0.90;;
29120;SDS011;16191;49.548;8.658;2022-09-27T17:25:12;3.33;;;0.95;;
29120;SDS011;16191;49.548;8.658;2022-09-27T17:27:58;2.60;;;1.30;;
29120;SDS011;16191;49.548;8.658;2022-09-27T17:30:25;2.05;;;1.10;;
29120;SDS011;16191;49.548;8.658;2022-09-27T17:32:51;2.55;;;1.35;;
29120;SDS011;16191;49.548;8.658;2022-09-27T17:35:18;2.75;;;1.10;;
29120;SDS011;16191;49.548;8.658;2022-09-27T17:37:44;2.92;;;1.00;;
29120;SDS011;16191;49.548;8.658;2022-09-27T17:40:11;2.50;;;1.10;;
29120;SDS011;16191;49.548;8.658;2022-09-27T17:42:39;2.55;;;1.70;;
29120;SDS011;16191;49.548;8.658;2022-09-27T17:45:06;3.67;;;1.25;;
29120;SDS011;16191;49.548;8.658;2022-09-27T17:47:35;4.07;;;1.50;;
29120;SDS011;16191;49.548;8.658;2022-09-27T17:50:20;2.95;;;1.38;;
29120;SDS011;16191;49.548;8.658;2022-09-27T17:52:50;2.05;;;1.20;;
29120;SDS011;16191;49.548;8.658;2022-09-27T17:55:17;1.95;;;1.25;;
29120;SDS011;16191;49.548;8.658;2022-09-27T17:57:45;2.47;;;1.10;;
29120;SDS011;16191;49.548;8.658;2022-09-27T18:00:13;3.45;;;1.23;;
29120;SDS011;16191;49.548;8.658;2022-09-27T18:02:40;2.47;;;1.25;;
29120;SDS011;16191;49.548;8.658;2022-09-27T18:05:07;2.33;;;0.95;;
29120;SDS011;16191;49.548;8.658;2022-09-27T18:07:35;3.08;;;1.40;;
29120;SDS011;16191;49.548;8.658;2022-09-27T18:10:03;3.72;;;1.52;;
29120;SDS011;16191;49.548;8.658;2022-09-27T18:12:29;1.73;;;0.98;;
29120;SDS011;16191;49.548;8.658;2022-09-27T18:15:00;3.90;;;1.55;;
29120;SDS011;16191;49.548;8.658;2022-09-27T18:17:27;3.83;;;1.50;;
29120;SDS011;16191;49.548;8.658;2022-09-27T18:19:54;5.82;;;1.30;;
29120;SDS011;16191;49.548;8.658;2022-09-27T18:22:22;3.92;;;1.40;;
29120;SDS011;16191;49.548;8.658;2022-09-27T18:24:53;5.05;;;1.80;;
29120;SDS011;16191;49.548;8.658;2022-09-27T18:27:19;3.63;;;1.80;;
29120;SDS011;16191;49.548;8.658;2022-09-27T18:29:46;5.72;;;2.08;;
29120;SDS011;16191;49.548;8.658;2022-09-27T18:32:12;6.25;;;1.83;;
29120;SDS011;16191;49.548;8.658;2022-09-27T18:34:39;4.10;;;2.08;;
29120;SDS011;16191;49.548;8.658;2022-09-27T18:37:28;4.00;;;1.90;;